• Join FlightAware (Why Join?)
  • Login
  • US Flag 
10:08AM EST


 

Airport Tracker/Info


-or-


 

Live Flight TrackerFlight Track Log ✈ UAL4191 ✈ 29-Apr-2013 ✈ KDAL - KIAH

Flight Track Log - Related Links

Times and Time Zones

All times are in EDT time to prevent confusion due to time zone crossing. See the UAL4191 flight status page for this flight to view local times or setup timezone preferences in your user account.

Time Position Orientation Groundspeed Altitude Reporting Facility
EDT Latitude Longitude Course Direction KTS MPH feet Rate Location/Type
10:39AM 32.8333 -96.8333 192° South 167 192 1,300  Level Dallas / Fort Worth TRACON
10:41AM 32.7667 -96.7333 128° Southeast 242 278 5,200 2,220 Climbing Dallas / Fort Worth TRACON
10:42AM 32.6417 -96.7399 164° South  Level Estimated
10:42AM 32.6481 -96.7522 188° South 176 203 8,900  Level Fort Worth Center
10:43AM 32.5732 -96.7028 168° South  Level Estimated
10:43AM 32.5583 -96.7700 189° South 241 277 10,800  Level Fort Worth Center
10:44AM 32.4995 -96.7211 192° South  Level FlightAware Approximate
10:44AM 32.4769 -96.7856 189° South 317 365 12,400  Level Fort Worth Center
10:45AM 32.3747 -96.8033 188° South 337 388 14,600 1,800 Climbing Fort Worth Center
10:46AM 32.2892 -96.8136 186° South 343 395 16,100 1,740 Climbing Fort Worth Center
10:47AM 32.1889 -96.7825 165° South 343 395 18,100 1,440 Climbing Fort Worth Center
10:48AM 32.0925 -96.7439 161° South 354 407 19,000 1,380 Climbing Fort Worth Center
10:49AM 31.9922 -96.7078 163° South 369 425 20,900 960 Climbing Fort Worth Center
10:50AM 31.8875 -96.6647 161° South 388 447 21,000  Climbing Fort Worth Center
10:51AM 31.7786 -96.6217 161° South 412 474 21,000  Level Fort Worth Center
10:53AM 31.5681 -96.5347 161° South 428 493 21,000  Level Houston Center
10:54AM 31.4567 -96.4903 161° South 418 481 21,000  Level Houston Center
10:55AM 31.3458 -96.4494 163° South 413 475 21,000  Level Houston Center
10:56AM 31.2350 -96.4069 162° South 413 475 21,000  Level Houston Center
10:57AM 31.1242 -96.3667 163° South 411 473 21,000  Level Houston Center
10:58AM 31.0139 -96.3253 162° South 411 473 21,000  Level Houston Center
11:00AM 30.9053 -96.2839 162° South 408 470 21,000 -1,080 Level Houston Center
11:01AM 30.7886 -96.2186 154° Southeast 389 448 18,800 -2,400 Descending Houston Center
11:02AM 30.7167 -96.1392 136° Southeast 357 411 16,100 -2,640 Descending Houston Center
11:02AM 30.6819 -96.1058 140° Southeast 347 399 14,900 -2,640 Descending Houston Center
11:03AM 30.6442 -96.0617 135° Southeast 353 406 13,400 -2,880 Descending Houston Center
11:03AM 30.5964 -96.0136 139° Southeast 372 428 11,700 -2,520 Descending Houston Center
11:04AM 30.5719 -95.9869 137° Southeast 366 421 10,800 -1,500 Descending Houston Center
11:04AM 30.5200 -95.9328 138° Southeast 366 421 10,200 -780 Descending Houston Center
11:05AM 30.4981 -95.9103 139° Southeast 359 413 10,000 -240 Descending Houston Center
11:05AM 30.4533 -95.8653 139° Southeast 297 342 10,000 -420 Level Houston Center
11:06AM 30.4242 -95.8397 143° Southeast 289 333 9,600 -1,200 Descending Houston Center
11:06AM 30.3839 -95.8394 180° South 277 319 8,800 -1,500 Descending Houston Center
11:07AM 30.3478 -95.8353 174° South 273 314 8,100 -1,320 Descending Houston Center
11:07AM 30.3142 -95.8331 177° South 277 319 7,600 -1,260 Descending Houston Center
11:08AM 30.2719 -95.8294 176° South 275 316 6,800 -1,620 Descending Houston Center
11:08AM 30.2403 -95.8272 177° South 254 292 6,000 -1,860 Descending Houston Center
11:09AM 30.2022 -95.8225 174° South 256 295 4,900 -1,920 Descending Houston Center
11:09AM 30.1681 -95.8186 174° South 254 292 4,100 -1,020 Descending Houston Center
11:10AM 30.1331 -95.8122 171° South 252 290 3,900 -240 Descending Houston Center
11:10AM 30.1067 -95.7897 144° Southeast 252 290 3,900 -300 Level Houston Center
11:11AM 30.0783 -95.7653 143° Southeast 242 278 3,600 -840 Descending Houston Center
11:11AM 30.0500 -95.7408 143° Southeast 243 280 3,100 -600 Descending Houston Center
11:12AM 30.0167 -95.7061 138° Southeast 240 276 3,000 -120 Descending Houston Center
11:12AM 30.0089 -95.6803 109° East 239 275 3,000  Level Houston Center
11:13AM 30.0064 -95.6353 94° East 222 255 3,000  Level Houston Center
11:13AM 30.0061 -95.6011 91° East 216 249 3,000  Level Houston Center
11:14AM 30.0072 -95.5622 88° East 222 255 3,000  Level Houston Center